createdAt,value
2022-10-05T00:00:22.184Z,9.30
2022-10-05T00:02:52.526Z,9.30
2022-10-05T00:05:30.141Z,9.30
2022-10-05T00:08:08.622Z,9.20
2022-10-05T00:10:36.097Z,9.20
2022-10-05T00:13:06.346Z,9.20
2022-10-05T00:15:33.564Z,9.20
2022-10-05T00:18:03.122Z,9.20
2022-10-05T00:20:30.401Z,9.20
2022-10-05T00:23:04.315Z,9.20
2022-10-05T00:25:31.567Z,9.20
2022-10-05T00:28:01.343Z,9.10
2022-10-05T00:30:34.012Z,9.10
2022-10-05T00:33:01.317Z,9.10
2022-10-05T00:35:29.581Z,9.20
2022-10-05T00:37:57.105Z,9.20
2022-10-05T00:40:46.056Z,9.20
2022-10-05T00:43:22.305Z,9.20
2022-10-05T00:46:15.965Z,9.20
2022-10-05T00:49:24.484Z,9.20
2022-10-05T00:52:20.228Z,9.20
2022-10-05T00:54:56.817Z,9.20
2022-10-05T00:57:29.641Z,9.20
2022-10-05T01:00:08.941Z,9.20
2022-10-05T01:02:48.032Z,9.20
2022-10-05T01:05:49.037Z,9.20
2022-10-05T01:08:41.973Z,9.10
2022-10-05T01:11:24.269Z,9.00
2022-10-05T01:13:59.257Z,8.90
2022-10-05T01:16:50.243Z,8.90
2022-10-05T01:19:51.281Z,8.80
2022-10-05T01:22:39.887Z,8.80
2022-10-05T01:25:25.612Z,8.70
2022-10-05T01:28:22.692Z,8.70
2022-10-05T01:31:19.814Z,8.60
2022-10-05T01:34:11.494Z,8.60
2022-10-05T01:37:06.641Z,8.60
2022-10-05T01:39:33.899Z,8.50
2022-10-05T01:42:15.503Z,8.50
2022-10-05T01:44:57.042Z,8.40
2022-10-05T01:47:27.090Z,8.40
2022-10-05T01:50:02.463Z,8.40
2022-10-05T01:52:38.305Z,8.40
2022-10-05T01:55:24.273Z,8.40
2022-10-05T01:58:14.155Z,8.40
2022-10-05T02:01:12.837Z,8.50
2022-10-05T02:03:54.077Z,8.50
2022-10-05T02:06:25.011Z,8.50
2022-10-05T02:09:05.014Z,8.50
2022-10-05T02:11:33.837Z,8.50
2022-10-05T02:14:07.422Z,8.40
2022-10-05T02:16:46.812Z,8.40
2022-10-05T02:19:39.630Z,8.40
2022-10-05T02:22:33.016Z,8.30
2022-10-05T02:25:07.721Z,8.30
2022-10-05T02:27:43.420Z,8.30
2022-10-05T02:30:16.251Z,8.30
2022-10-05T02:33:09.380Z,8.30
2022-10-05T02:35:37.231Z,8.40
2022-10-05T02:38:19.429Z,8.40
2022-10-05T02:41:18.238Z,8.40
2022-10-05T02:44:09.499Z,8.40
2022-10-05T02:47:15.900Z,8.50
2022-10-05T02:50:00.695Z,8.50
2022-10-05T02:52:37.118Z,8.50
2022-10-05T02:55:51.432Z,8.50
2022-10-05T02:58:27.439Z,8.50
2022-10-05T03:01:07.828Z,8.50
2022-10-05T03:03:41.862Z,8.50
2022-10-05T03:06:19.770Z,8.40
2022-10-05T03:09:00.479Z,8.40
2022-10-05T03:11:35.166Z,8.40
2022-10-05T03:14:19.185Z,8.40
2022-10-05T03:17:05.096Z,8.40
2022-10-05T03:20:12.047Z,8.40
2022-10-05T03:22:52.429Z,8.40
2022-10-05T03:25:32.373Z,8.50
2022-10-05T03:28:13.948Z,8.50
2022-10-05T03:31:25.720Z,8.60
2022-10-05T03:34:06.782Z,8.60
2022-10-05T03:36:40.950Z,8.60
2022-10-05T03:39:28.463Z,8.60
2022-10-05T03:42:17.106Z,8.50
2022-10-05T03:45:23.039Z,8.50
2022-10-05T03:48:19.844Z,8.50
2022-10-05T03:50:58.082Z,8.50
2022-10-05T03:53:35.292Z,8.50
2022-10-05T03:56:20.611Z,8.50
2022-10-05T03:59:08.640Z,8.50
2022-10-05T04:01:42.676Z,8.60
2022-10-05T04:04:19.932Z,8.60
2022-10-05T04:06:54.844Z,8.60
2022-10-05T04:09:32.633Z,8.60
2022-10-05T04:12:32.398Z,8.60
2022-10-05T04:15:08.269Z,8.70
2022-10-05T04:17:43.008Z,8.60
2022-10-05T04:20:29.305Z,8.60
2022-10-05T04:23:08.010Z,8.60
2022-10-05T04:25:41.665Z,8.60
2022-10-05T04:28:31.938Z,8.50
2022-10-05T04:31:03.898Z,8.50
2022-10-05T04:33:32.246Z,8.50
2022-10-05T04:36:21.187Z,8.50
2022-10-05T04:38:54.600Z,8.40
2022-10-05T04:41:44.758Z,8.40
2022-10-05T04:44:36.858Z,8.30
2022-10-05T04:47:10.963Z,8.30
2022-10-05T04:49:56.849Z,8.20
2022-10-05T04:52:51.359Z,8.20
2022-10-05T04:55:59.559Z,8.10
2022-10-05T04:58:42.560Z,8.10
2022-10-05T05:01:47.483Z,8.00
2022-10-05T05:04:21.326Z,8.00
2022-10-05T05:07:24.620Z,8.00
2022-10-05T05:10:00.527Z,7.90
2022-10-05T05:12:41.696Z,7.90
2022-10-05T05:15:48.069Z,7.90
2022-10-05T05:18:21.228Z,7.90
2022-10-05T05:20:56.183Z,7.90
2022-10-05T05:23:50.625Z,7.90
2022-10-05T05:26:28.861Z,8.00
2022-10-05T05:29:17.666Z,8.00
2022-10-05T05:32:04.652Z,8.10
2022-10-05T05:34:43.979Z,8.10
2022-10-05T05:37:37.773Z,8.20
2022-10-05T05:40:21.048Z,8.20
2022-10-05T05:42:51.323Z,8.30
2022-10-05T05:45:33.691Z,8.40
2022-10-05T05:48:05.767Z,8.40
2022-10-05T05:50:33.012Z,8.50
2022-10-05T05:53:27.282Z,8.50
2022-10-05T05:56:20.728Z,8.60
2022-10-05T05:58:59.464Z,8.70
2022-10-05T06:02:05.597Z,8.70
2022-10-05T06:04:45.879Z,8.80
2022-10-05T06:07:22.042Z,8.80
2022-10-05T06:09:59.320Z,8.90
2022-10-05T06:12:41.638Z,8.90
2022-10-05T06:15:42.588Z,9.00
2022-10-05T06:18:17.102Z,9.00
2022-10-05T06:21:06.578Z,9.10
2022-10-05T06:24:02.948Z,9.10
2022-10-05T06:26:53.620Z,9.20
2022-10-05T06:29:25.186Z,9.20
2022-10-05T06:32:28.694Z,9.30
2022-10-05T06:35:15.822Z,9.40
2022-10-05T06:38:09.279Z,9.50
2022-10-05T06:40:55.544Z,9.60
2022-10-05T06:43:58.522Z,9.60
2022-10-05T06:46:54.157Z,9.70
2022-10-05T06:49:54.726Z,9.90
2022-10-05T06:52:59.649Z,10.00
2022-10-05T06:55:48.778Z,10.20
2022-10-05T06:58:22.098Z,10.20
2022-10-05T07:01:11.575Z,10.30
2022-10-05T07:04:07.873Z,10.40
2022-10-05T07:07:02.994Z,10.50
2022-10-05T07:10:04.452Z,10.60
2022-10-05T07:12:57.434Z,10.70
2022-10-05T07:15:51.152Z,10.80
2022-10-05T07:18:46.162Z,10.90
2022-10-05T07:21:54.041Z,11.00
2022-10-05T07:24:43.914Z,11.10
2022-10-05T07:27:21.188Z,11.20
2022-10-05T07:30:08.003Z,11.30
2022-10-05T07:32:55.490Z,11.30
2022-10-05T07:35:50.503Z,11.40
2022-10-05T07:38:22.620Z,11.40
2022-10-05T07:41:06.773Z,11.50
2022-10-05T07:44:01.689Z,11.60
2022-10-05T07:46:44.908Z,11.70
2022-10-05T07:49:26.680Z,11.90
2022-10-05T07:52:11.543Z,11.90
2022-10-05T07:54:57.235Z,12.00
2022-10-05T07:57:45.175Z,12.10
2022-10-05T08:00:20.426Z,12.20
2022-10-05T08:02:56.757Z,12.30
2022-10-05T08:05:30.998Z,12.30
2022-10-05T08:08:36.527Z,12.40
2022-10-05T08:11:27.093Z,12.50
2022-10-05T08:14:03.233Z,12.70
2022-10-05T08:16:36.227Z,12.80
2022-10-05T08:19:23.560Z,12.90
2022-10-05T08:22:10.960Z,12.90
2022-10-05T08:24:44.419Z,13.10
2022-10-05T08:27:17.666Z,13.20
2022-10-05T08:30:06.620Z,13.30
2022-10-05T08:32:50.567Z,13.50
2022-10-05T08:35:41.131Z,13.70
2022-10-05T08:38:17.477Z,13.80
2022-10-05T08:41:09.825Z,13.90
2022-10-05T08:43:43.223Z,14.10
2022-10-05T08:46:35.533Z,14.20
2022-10-05T08:49:21.406Z,14.40
2022-10-05T08:52:17.122Z,14.40
2022-10-05T08:54:59.305Z,14.50
2022-10-05T08:57:29.657Z,14.60
2022-10-05T09:00:14.265Z,14.80
2022-10-05T09:03:12.345Z,15.00
2022-10-05T09:06:17.498Z,15.20
2022-10-05T09:08:53.877Z,15.20
2022-10-05T09:11:47.692Z,15.30
2022-10-05T09:14:33.643Z,15.50
2022-10-05T09:17:39.252Z,15.80
2022-10-05T09:20:28.001Z,15.90
2022-10-05T09:23:32.010Z,16.10
2022-10-05T09:26:09.475Z,16.10
2022-10-05T09:29:02.199Z,16.20
2022-10-05T09:31:56.749Z,16.50
2022-10-05T09:34:24.534Z,16.70
2022-10-05T09:37:08.432Z,16.80
2022-10-05T09:40:01.502Z,16.90
2022-10-05T09:43:18.472Z,16.80
2022-10-05T09:45:58.692Z,17.00
2022-10-05T09:48:52.982Z,17.10
2022-10-05T09:51:25.858Z,17.20
2022-10-05T09:54:17.075Z,17.20
2022-10-05T09:56:56.597Z,17.30
2022-10-05T09:59:57.558Z,17.50
2022-10-05T10:02:43.019Z,17.70
2022-10-05T10:05:49.596Z,17.80
2022-10-05T10:08:42.909Z,18.10
2022-10-05T10:11:10.266Z,18.10
2022-10-05T10:14:01.954Z,18.20
2022-10-05T10:17:02.744Z,18.30
2022-10-05T10:19:41.270Z,18.40
2022-10-05T10:22:17.568Z,18.60
2022-10-05T10:25:19.283Z,18.70
2022-10-05T10:28:01.009Z,19.00
2022-10-05T10:30:47.198Z,19.10
2022-10-05T10:33:51.677Z,19.20
2022-10-05T10:36:32.678Z,19.20
2022-10-05T10:39:24.373Z,19.40
2022-10-05T10:42:12.742Z,19.90
2022-10-05T10:44:49.355Z,20.20
2022-10-05T10:47:19.437Z,20.30
2022-10-05T10:49:46.653Z,20.30
2022-10-05T10:52:47.013Z,20.50
2022-10-05T10:55:29.418Z,20.80
2022-10-05T10:58:16.390Z,21.00
2022-10-05T11:01:24.613Z,21.20
2022-10-05T11:03:57.844Z,21.30
2022-10-05T11:06:37.357Z,21.30
2022-10-05T11:09:42.174Z,21.50
2022-10-05T11:12:36.321Z,21.80
2022-10-05T11:15:31.548Z,21.70
2022-10-05T11:18:13.302Z,21.70
2022-10-05T11:21:16.450Z,21.50
2022-10-05T11:24:30.850Z,21.40
2022-10-05T11:27:35.337Z,21.60
2022-10-05T11:30:30.316Z,21.80
2022-10-05T11:33:30.897Z,21.60
2022-10-05T11:36:19.983Z,21.80
2022-10-05T11:39:03.320Z,22.20
2022-10-05T11:41:52.459Z,22.60
2022-10-05T11:44:55.373Z,22.70
2022-10-05T11:47:38.283Z,22.50
2022-10-05T11:50:50.660Z,22.50
2022-10-05T11:53:33.300Z,22.60
2022-10-05T11:56:08.001Z,22.90
2022-10-05T11:58:35.192Z,22.80
2022-10-05T12:01:23.466Z,22.80
2022-10-05T12:03:57.172Z,23.00
2022-10-05T12:06:47.430Z,23.20
2022-10-05T12:09:33.991Z,23.20
2022-10-05T12:12:16.901Z,23.20
2022-10-05T12:15:02.268Z,23.20
2022-10-05T12:17:46.728Z,23.40
2022-10-05T12:20:20.140Z,23.80
2022-10-05T12:22:56.758Z,23.90
2022-10-05T12:25:34.363Z,24.20
2022-10-05T12:28:09.260Z,24.50
2022-10-05T12:30:58.151Z,24.70
2022-10-05T12:33:45.701Z,25.20
2022-10-05T12:36:46.260Z,25.40
2022-10-05T12:39:18.027Z,25.70
2022-10-05T12:42:08.559Z,26.00
2022-10-05T12:44:47.102Z,26.00
2022-10-05T12:47:20.267Z,26.70
2022-10-05T12:49:59.115Z,26.90
2022-10-05T12:52:32.436Z,27.70
2022-10-05T12:55:28.457Z,28.00
2022-10-05T12:58:32.972Z,28.50
2022-10-05T13:01:20.026Z,28.60
2022-10-05T13:04:01.271Z,28.60
2022-10-05T13:06:49.048Z,28.90
2022-10-05T13:09:24.073Z,29.10
2022-10-05T13:12:03.919Z,29.10
2022-10-05T13:14:51.973Z,28.70
2022-10-05T13:17:46.377Z,28.30
2022-10-05T13:20:43.151Z,28.10
2022-10-05T13:23:28.371Z,28.20
2022-10-05T13:26:04.065Z,27.90
2022-10-05T13:28:42.127Z,27.50
2022-10-05T13:31:19.957Z,27.50
2022-10-05T13:34:05.846Z,27.70
2022-10-05T13:36:52.045Z,27.80
2022-10-05T13:39:31.327Z,27.50
2022-10-05T13:42:13.220Z,27.60
2022-10-05T13:45:09.505Z,27.60
2022-10-05T13:47:54.881Z,27.50
2022-10-05T13:50:35.069Z,27.00
2022-10-05T13:53:15.214Z,27.00
2022-10-05T13:56:00.175Z,26.70
2022-10-05T13:58:48.145Z,26.60
2022-10-05T14:01:43.623Z,26.40
2022-10-05T14:04:29.058Z,26.70
2022-10-05T14:06:56.425Z,26.90
2022-10-05T14:09:34.222Z,27.10
2022-10-05T14:12:04.566Z,27.20
2022-10-05T14:14:42.395Z,27.00
2022-10-05T14:17:29.234Z,26.80
2022-10-05T14:20:03.576Z,28.00
2022-10-05T14:22:40.981Z,28.30
2022-10-05T14:25:08.186Z,28.10
2022-10-05T14:28:00.209Z,28.70
2022-10-05T14:30:29.685Z,28.80
2022-10-05T14:33:06.110Z,28.60
2022-10-05T14:35:57.035Z,28.50
2022-10-05T14:38:35.375Z,28.60
2022-10-05T14:41:25.480Z,28.60
2022-10-05T14:44:02.109Z,28.40
2022-10-05T14:46:32.917Z,28.10
2022-10-05T14:49:29.210Z,28.40
2022-10-05T14:51:57.091Z,27.50
2022-10-05T14:54:49.290Z,27.50
2022-10-05T14:57:55.729Z,27.40
2022-10-05T15:00:24.467Z,27.70
2022-10-05T15:03:18.778Z,27.10
2022-10-05T15:05:50.997Z,26.90
2022-10-05T15:08:41.528Z,26.90
2022-10-05T15:11:22.569Z,26.70
2022-10-05T15:13:50.533Z,26.30
2022-10-05T15:16:31.546Z,26.20
2022-10-05T15:19:04.738Z,26.30
2022-10-05T15:22:01.211Z,26.00
2022-10-05T15:24:43.746Z,25.50
2022-10-05T15:27:36.031Z,25.20
2022-10-05T15:30:12.903Z,25.00
2022-10-05T15:32:49.953Z,24.50
2022-10-05T15:35:39.004Z,24.30
2022-10-05T15:38:14.903Z,24.10
2022-10-05T15:40:51.028Z,23.70
2022-10-05T15:43:21.672Z,23.40
2022-10-05T15:46:01.254Z,23.40
2022-10-05T15:48:49.711Z,23.30
2022-10-05T15:51:51.798Z,23.20
2022-10-05T15:54:43.590Z,23.30
2022-10-05T15:57:35.663Z,23.10
2022-10-05T16:00:10.495Z,22.90
2022-10-05T16:03:15.924Z,22.60
2022-10-05T16:06:10.337Z,22.50
2022-10-05T16:09:16.241Z,22.50
2022-10-05T16:12:21.950Z,22.40
2022-10-05T16:15:17.800Z,22.40
2022-10-05T16:17:54.151Z,22.70
2022-10-05T16:20:32.982Z,23.10
2022-10-05T16:23:21.436Z,23.60
2022-10-05T16:26:00.760Z,23.70
2022-10-05T16:28:39.611Z,23.50
2022-10-05T16:31:40.396Z,23.30
2022-10-05T16:34:31.560Z,23.00
2022-10-05T16:37:11.767Z,22.90
2022-10-05T16:39:57.832Z,22.50
2022-10-05T16:42:55.471Z,21.90
2022-10-05T16:45:25.851Z,21.30
2022-10-05T16:47:59.079Z,20.80
2022-10-05T16:51:07.772Z,20.40
2022-10-05T16:53:42.120Z,19.90
2022-10-05T16:56:20.065Z,19.60
2022-10-05T16:58:59.352Z,19.30
2022-10-05T17:01:50.149Z,19.10
2022-10-05T17:04:43.285Z,18.80
2022-10-05T17:07:39.484Z,18.60
2022-10-05T17:10:45.774Z,18.40
2022-10-05T17:13:37.455Z,18.20
2022-10-05T17:17:00.252Z,18.00
2022-10-05T17:20:09.207Z,17.90
2022-10-05T17:22:52.522Z,17.70
2022-10-05T17:25:39.162Z,17.50
2022-10-05T17:28:37.132Z,17.50
2022-10-05T17:31:20.533Z,17.30
2022-10-05T17:33:59.480Z,17.20
2022-10-05T17:36:43.232Z,17.10
2022-10-05T17:39:13.911Z,17.00
2022-10-05T17:41:41.619Z,16.90
2022-10-05T17:44:16.326Z,16.80
2022-10-05T17:46:56.265Z,16.70
2022-10-05T17:50:29.432Z,16.70
2022-10-05T17:53:52.910Z,16.60
2022-10-05T17:56:22.207Z,16.50
2022-10-05T17:58:54.785Z,16.40
2022-10-05T18:01:39.511Z,16.40
2022-10-05T18:04:13.016Z,16.30
2022-10-05T18:06:44.764Z,16.30
2022-10-05T18:09:20.494Z,16.20
2022-10-05T18:12:12.743Z,16.20
2022-10-05T18:14:57.490Z,16.10
2022-10-05T18:17:48.044Z,16.00
2022-10-05T18:20:22.417Z,16.00
2022-10-05T18:22:53.055Z,16.00
2022-10-05T18:25:36.766Z,16.00
2022-10-05T18:28:18.730Z,15.90
2022-10-05T18:31:16.517Z,15.90
2022-10-05T18:34:08.949Z,15.80
2022-10-05T18:37:13.461Z,15.80
2022-10-05T18:40:05.698Z,15.80
2022-10-05T18:42:48.831Z,15.80
2022-10-05T18:45:20.035Z,15.80
2022-10-05T18:48:18.284Z,15.80
2022-10-05T18:50:56.055Z,15.80
2022-10-05T18:53:23.311Z,15.80
2022-10-05T18:56:02.347Z,15.70
2022-10-05T18:58:47.136Z,15.70
2022-10-05T19:01:40.441Z,15.70
2022-10-05T19:04:27.322Z,15.70
2022-10-05T19:07:04.881Z,15.70
2022-10-05T19:09:56.803Z,15.80
2022-10-05T19:12:50.058Z,15.80
2022-10-05T19:15:41.584Z,15.70
2022-10-05T19:18:41.636Z,15.70
2022-10-05T19:21:14.734Z,15.70
2022-10-05T19:24:06.447Z,15.70
2022-10-05T19:27:07.347Z,15.60
2022-10-05T19:30:13.655Z,15.60
2022-10-05T19:33:06.201Z,15.60
2022-10-05T19:35:58.415Z,15.60
2022-10-05T19:38:31.540Z,15.60
2022-10-05T19:41:29.106Z,15.70
2022-10-05T19:44:12.432Z,15.70
2022-10-05T19:46:39.763Z,15.70
2022-10-05T19:49:10.213Z,15.60
2022-10-05T19:51:50.002Z,15.60
2022-10-05T19:54:25.938Z,15.50
2022-10-05T19:56:55.050Z,15.60
2022-10-05T19:59:27.191Z,15.60
2022-10-05T20:01:57.337Z,15.50
2022-10-05T20:04:43.280Z,15.50
2022-10-05T20:07:20.858Z,15.40
2022-10-05T20:10:01.016Z,15.40
2022-10-05T20:12:47.719Z,15.30
2022-10-05T20:15:42.115Z,15.20
2022-10-05T20:18:51.023Z,15.10
2022-10-05T20:21:44.485Z,15.10
2022-10-05T20:24:25.876Z,14.90
2022-10-05T20:27:16.626Z,14.80
2022-10-05T20:29:45.302Z,14.80
2022-10-05T20:32:20.330Z,14.80
2022-10-05T20:34:49.514Z,14.70
2022-10-05T20:37:18.832Z,14.60
2022-10-05T20:39:47.430Z,14.60
2022-10-05T20:42:14.755Z,14.60
2022-10-05T20:44:42.118Z,14.60
2022-10-05T20:47:10.398Z,14.50
2022-10-05T20:49:41.200Z,14.60
2022-10-05T20:52:10.497Z,14.50
2022-10-05T20:54:39.164Z,14.50
2022-10-05T20:57:08.616Z,14.50
2022-10-05T20:59:37.732Z,14.50
2022-10-05T21:02:05.977Z,14.40
2022-10-05T21:04:40.878Z,14.40
2022-10-05T21:07:09.670Z,14.40
2022-10-05T21:09:38.601Z,14.40
2022-10-05T21:12:05.950Z,14.40
2022-10-05T21:14:34.546Z,14.30
2022-10-05T21:17:03.804Z,14.30
2022-10-05T21:19:31.198Z,14.30
2022-10-05T21:21:59.269Z,14.40
2022-10-05T21:24:26.551Z,14.30
2022-10-05T21:26:57.720Z,14.30
2022-10-05T21:29:25.181Z,14.40
2022-10-05T21:31:52.578Z,14.30
2022-10-05T21:34:20.031Z,14.20
2022-10-05T21:36:47.334Z,14.20
2022-10-05T21:39:14.617Z,14.20
2022-10-05T21:41:41.862Z,14.20
2022-10-05T21:44:09.208Z,14.10
2022-10-05T21:46:37.547Z,14.20
2022-10-05T21:49:06.816Z,14.20
2022-10-05T21:51:35.748Z,14.10
2022-10-05T21:54:13.210Z,14.30
2022-10-05T21:56:44.190Z,14.30
2022-10-05T21:59:13.422Z,14.30
2022-10-05T22:01:40.717Z,14.20
2022-10-05T22:04:08.450Z,14.20
2022-10-05T22:06:35.943Z,14.10
2022-10-05T22:09:04.904Z,14.20
2022-10-05T22:11:32.812Z,14.20
2022-10-05T22:14:03.559Z,14.20
2022-10-05T22:16:33.471Z,14.30
2022-10-05T22:19:13.956Z,14.20
2022-10-05T22:21:42.028Z,14.30
2022-10-05T22:24:11.728Z,14.40
2022-10-05T22:26:41.937Z,14.40
2022-10-05T22:29:09.867Z,14.40
2022-10-05T22:31:38.382Z,14.40
2022-10-05T22:34:05.869Z,14.40
2022-10-05T22:36:35.613Z,14.40
2022-10-05T22:39:03.198Z,14.40
2022-10-05T22:41:30.469Z,14.30
2022-10-05T22:43:57.712Z,14.30
2022-10-05T22:46:25.251Z,14.20
2022-10-05T22:48:52.485Z,14.20
2022-10-05T22:51:19.966Z,14.20
2022-10-05T22:53:47.471Z,14.20
2022-10-05T22:56:15.710Z,14.20
2022-10-05T22:58:43.813Z,14.20
2022-10-05T23:01:15.139Z,14.20
2022-10-05T23:03:42.698Z,14.10
2022-10-05T23:06:14.403Z,14.00
2022-10-05T23:08:42.875Z,14.00
2022-10-05T23:11:16.779Z,13.90
2022-10-05T23:13:44.337Z,13.90
2022-10-05T23:16:17.771Z,13.90
2022-10-05T23:18:47.574Z,13.90
2022-10-05T23:21:15.306Z,13.80
2022-10-05T23:23:47.427Z,13.90
2022-10-05T23:26:15.850Z,13.80
2022-10-05T23:28:47.200Z,13.80
2022-10-05T23:31:17.884Z,13.80
2022-10-05T23:33:45.368Z,13.90
2022-10-05T23:36:21.397Z,13.80
2022-10-05T23:38:48.910Z,13.90
2022-10-05T23:41:17.140Z,13.80
2022-10-05T23:43:44.355Z,14.00
2022-10-05T23:46:13.074Z,14.00
2022-10-05T23:48:41.514Z,14.10
2022-10-05T23:51:11.310Z,14.10
2022-10-05T23:53:38.619Z,14.10
2022-10-05T23:56:06.473Z,13.90
2022-10-05T23:58:33.911Z,14.00
